Time;durP1;ratioP1;P1;durP2;ratioP2;P2;SDS_P1;SDS_P2;PMS_P1;PMS_P2;Temp;Humidity;BMP_temperature;BMP_pressure;BME280_temperature;BME280_humidity;BME280_pressure;Samples;Min_cycle;Max_cycle;Signal;HPM_P1;HPM_P2
2023/12/20 00:01:18;;;;;;;2.60;1.63;;;;;;;10.18;56.95;97440.78;5041280;28;20225;-72
2023/12/20 00:03:44;;;;;;;1.80;1.50;;;;;;;10.12;57.00;97432.56;5036023;28;20192;-71
2023/12/20 00:06:09;;;;;;;1.93;1.50;;;;;;;10.18;56.93;97420.66;5042257;28;20229;-71
2023/12/20 00:08:35;;;;;;;1.73;1.63;;;;;;;10.26;57.14;97418.16;5042901;28;20198;-70
2023/12/20 00:11:00;;;;;;;2.37;1.70;;;;;;;10.32;56.89;97415.94;5037021;28;20298;-71
2023/12/20 00:13:26;;;;;;;1.90;1.80;;;;;;;10.22;57.09;97422.00;5035968;28;20213;-70
2023/12/20 00:15:51;;;;;;;1.80;1.70;;;;;;;10.29;57.10;97428.34;5041879;28;20233;-70
2023/12/20 00:18:17;;;;;;;1.80;1.60;;;;;;;10.30;56.93;97429.16;5037165;28;20222;-71
2023/12/20 00:20:42;;;;;;;5.33;1.70;;;;;;;10.36;57.00;97425.97;5043685;28;20183;-69
2023/12/20 00:23:08;;;;;;;1.77;1.67;;;;;;;10.37;56.82;97409.28;5044205;28;20206;-68
2023/12/20 00:25:34;;;;;;;2.40;1.93;;;;;;;10.30;57.25;97419.50;5040904;28;20265;-69
2023/12/20 00:28:00;;;;;;;3.20;2.00;;;;;;;10.38;57.22;97410.13;5038448;28;20192;-69
2023/12/20 00:30:25;;;;;;;1.57;1.47;;;;;;;10.47;57.12;97404.00;5035249;28;20985;-68
2023/12/20 00:32:51;;;;;;;2.00;1.80;;;;;;;10.44;57.30;97396.44;5042924;28;20186;-69
2023/12/20 00:35:16;;;;;;;1.57;1.40;;;;;;;10.50;57.28;97403.72;5043393;28;20205;-70
2023/12/20 00:37:45;;;;;;;1.50;1.40;;;;;;;10.57;57.23;97396.91;5040175;28;20210;-69
2023/12/20 00:40:11;;;;;;;2.13;1.27;;;;;;;10.50;57.21;97400.28;5038460;28;20206;-70
2023/12/20 00:42:36;;;;;;;1.53;1.30;;;;;;;10.57;57.31;97404.78;5036575;28;20438;-71
2023/12/20 00:45:04;;;;;;;2.50;1.50;;;;;;;10.37;57.59;97400.56;5035062;28;20223;-71
2023/12/20 00:47:30;;;;;;;2.20;1.20;;;;;;;10.28;58.63;97403.09;5030094;28;20560;-71
2023/12/20 00:49:55;;;;;;;1.73;1.30;;;;;;;10.37;58.25;97395.34;5037387;28;20434;-70
2023/12/20 00:52:22;;;;;;;1.50;1.27;;;;;;;10.32;58.86;97401.03;5040151;28;20483;-69
2023/12/20 00:54:48;;;;;;;1.50;1.40;;;;;;;10.12;59.64;97392.44;5040436;28;20530;-70
2023/12/20 00:57:13;;;;;;;1.67;1.00;;;;;;;10.27;59.51;97390.97;5036450;28;20453;-70
2023/12/20 00:59:39;;;;;;;1.70;1.20;;;;;;;10.23;59.62;97391.41;5025710;28;20188;-71
2023/12/20 01:02:04;;;;;;;1.30;1.20;;;;;;;10.28;59.70;97400.50;5037702;28;20239;-70
2023/12/20 01:04:30;;;;;;;1.47;1.20;;;;;;;10.29;59.90;97386.44;5038530;28;20311;-70
2023/12/20 01:06:55;;;;;;;1.80;1.17;;;;;;;10.19;60.34;97396.13;5038378;28;20884;-70
2023/12/20 01:09:23;;;;;;;1.40;1.20;;;;;;;10.29;60.14;97407.38;5045202;28;20195;-70
2023/12/20 01:11:49;;;;;;;1.40;1.30;;;;;;;10.39;60.07;97396.06;5027684;28;20219;-70
2023/12/20 01:14:14;;;;;;;2.20;1.50;;;;;;;10.41;60.17;97405.41;5035347;28;20442;-70
2023/12/20 01:16:40;;;;;;;1.23;1.13;;;;;;;10.30;60.55;97408.19;5030070;28;20462;-70
2023/12/20 01:19:05;;;;;;;1.87;1.60;;;;;;;10.37;60.20;97408.44;5035972;28;20632;-70
2023/12/20 01:21:30;;;;;;;1.70;1.30;;;;;;;10.20;60.98;97408.25;5030309;28;20537;-70
2023/12/20 01:23:57;;;;;;;1.30;1.20;;;;;;;10.24;60.86;97409.59;5038990;28;20642;-72
2023/12/20 01:26:22;;;;;;;1.30;1.10;;;;;;;10.29;60.57;97412.63;5026329;28;20561;-71
2023/12/20 01:28:48;;;;;;;2.30;1.03;;;;;;;10.36;60.58;97406.78;5041170;28;20889;-70
2023/12/20 01:31:13;;;;;;;1.30;1.20;;;;;;;10.35;61.15;97411.22;5019142;28;20824;-70
2023/12/20 01:33:39;;;;;;;1.30;1.20;;;;;;;10.35;61.12;97410.38;5037703;28;20211;-70
2023/12/20 01:36:04;;;;;;;1.20;1.00;;;;;;;10.42;61.15;97416.72;5026071;28;20210;-70
2023/12/20 01:38:30;;;;;;;1.60;1.03;;;;;;;10.43;61.00;97415.75;5016097;28;20194;-69
2023/12/20 01:40:55;;;;;;;1.53;1.10;;;;;;;10.45;60.65;97412.00;5034568;28;20199;-70
2023/12/20 01:43:21;;;;;;;1.57;1.33;;;;;;;10.45;60.80;97416.44;5020082;28;20222;-71
2023/12/20 01:45:47;;;;;;;1.40;1.03;;;;;;;10.44;61.35;97412.97;5033566;28;20302;-71
2023/12/20 01:48:13;;;;;;;2.13;1.00;;;;;;;10.50;61.38;97414.19;5036667;28;20213;-70
2023/12/20 01:50:39;;;;;;;1.30;1.20;;;;;;;10.38;61.32;97424.06;5028235;28;20454;-72
2023/12/20 01:53:07;;;;;;;2.30;1.40;;;;;;;10.43;61.42;97421.81;5038499;28;20422;-70
2023/12/20 01:55:35;;;;;;;1.17;1.07;;;;;;;10.50;61.38;97414.19;5043248;28;20464;-70
2023/12/20 01:58:00;;;;;;;2.60;1.37;;;;;;;10.52;61.00;97406.19;5018034;28;20481;-71
2023/12/20 02:00:27;;;;;;;1.30;1.17;;;;;;;10.54;60.91;97404.22;5031287;28;20487;-71
2023/12/20 02:02:53;;;;;;;3.43;1.10;;;;;;;10.60;60.90;97401.84;5043497;28;20213;-72
2023/12/20 02:05:19;;;;;;;2.50;1.20;;;;;;;10.62;60.71;97406.13;5036359;28;20481;-69
2023/12/20 02:07:44;;;;;;;1.30;0.97;;;;;;;10.55;60.76;97400.63;5037530;28;20438;-72
2023/12/20 02:10:10;;;;;;;1.67;1.10;;;;;;;10.58;61.05;97405.59;5039423;28;20195;-70
2023/12/20 02:12:35;;;;;;;1.10;1.00;;;;;;;10.44;61.27;97407.75;5032611;28;20199;-71
2023/12/20 02:15:01;;;;;;;1.30;0.80;;;;;;;10.49;61.12;97404.69;5035961;28;20203;-69
2023/12/20 02:17:27;;;;;;;3.00;1.10;;;;;;;10.50;61.03;97398.47;5036357;28;20195;-70
2023/12/20 02:19:52;;;;;;;0.90;0.73;;;;;;;10.40;61.19;97405.56;5038238;28;20193;-70
2023/12/20 02:22:18;;;;;;;0.90;0.70;;;;;;;10.45;61.38;97401.53;5038319;28;20473;-71
2023/12/20 02:24:43;;;;;;;1.60;1.00;;;;;;;10.48;61.04;97397.78;5030240;28;20211;-71
2023/12/20 02:27:09;;;;;;;1.00;0.80;;;;;;;10.48;61.11;97395.16;5033446;28;20191;-70
2023/12/20 02:29:35;;;;;;;1.23;0.97;;;;;;;10.42;61.43;97406.25;5028725;28;20644;-70
2023/12/20 02:32:00;;;;;;;1.30;0.90;;;;;;;10.43;61.41;97398.22;5032619;28;20614;-70
2023/12/20 02:34:26;;;;;;;1.60;0.70;;;;;;;10.44;61.34;97399.06;5036508;28;20431;-70
2023/12/20 02:36:51;;;;;;;1.30;0.90;;;;;;;10.43;61.24;97397.41;5039118;28;20293;-71
2023/12/20 02:39:18;;;;;;;0.90;0.73;;;;;;;10.50;61.32;97398.47;5033432;28;20187;-70
2023/12/20 02:41:44;;;;;;;4.20;1.03;;;;;;;10.52;61.03;97401.78;5034973;28;20191;-71
2023/12/20 02:44:09;;;;;;;1.10;1.00;;;;;;;10.56;60.97;97403.13;5033345;28;20462;-70
2023/12/20 02:46:34;;;;;;;3.37;0.93;;;;;;;10.52;61.32;97406.19;5036706;28;20402;-70
2023/12/20 02:49:00;;;;;;;2.00;0.80;;;;;;;10.56;61.43;97408.38;5041665;28;20248;-71
2023/12/20 02:51:25;;;;;;;0.90;0.80;;;;;;;10.60;61.35;97409.72;5030943;28;20232;-70
2023/12/20 02:53:51;;;;;;;1.37;0.93;;;;;;;10.62;61.20;97403.50;5043287;28;20218;-71
2023/12/20 02:56:16;;;;;;;1.70;1.40;;;;;;;10.58;61.50;97414.28;5032938;28;20200;-70
2023/12/20 02:58:42;;;;;;;1.83;1.63;;;;;;;10.47;62.00;97422.34;5029911;28;20669;-72
2023/12/20 03:01:07;;;;;;;4.50;1.77;;;;;;;10.46;62.02;97410.19;5038414;28;20651;-71
2023/12/20 03:03:33;;;;;;;5.90;1.63;;;;;;;10.29;62.92;97420.47;5035846;28;20557;-71
2023/12/20 03:05:59;;;;;;;2.40;1.23;;;;;;;10.34;63.07;97422.66;5027700;28;20227;-71
2023/12/20 03:08:24;;;;;;;2.07;1.13;;;;;;;10.39;62.91;97424.88;5036700;28;20202;-71
2023/12/20 03:10:50;;;;;;;1.20;1.10;;;;;;;10.38;63.04;97420.59;5038383;28;20437;-70
2023/12/20 03:13:15;;;;;;;1.50;1.20;;;;;;;10.34;62.72;97424.44;5040601;28;20283;-70
2023/12/20 03:15:41;;;;;;;1.00;0.90;;;;;;;10.42;63.04;97429.81;5033285;28;20312;-71
2023/12/20 03:18:06;;;;;;;2.00;1.27;;;;;;;10.45;63.26;97432.16;5042133;28;20199;-70
2023/12/20 03:20:34;;;;;;;1.50;1.20;;;;;;;10.47;62.73;97439.88;5036316;28;20285;-71
2023/12/20 03:23:03;;;;;;;1.70;1.33;;;;;;;10.50;62.73;97429.09;5042659;28;20337;-71
2023/12/20 03:25:28;;;;;;;1.43;1.17;;;;;;;10.49;62.64;97433.50;5040212;28;20966;-71
2023/12/20 03:27:54;;;;;;;1.43;1.33;;;;;;;10.53;62.76;97434.03;5042583;28;20440;-71
2023/12/20 03:30:19;;;;;;;1.93;1.50;;;;;;;10.56;62.52;97433.75;5029524;28;20684;-71
2023/12/20 03:32:45;;;;;;;1.73;0.90;;;;;;;10.49;62.25;97428.25;5027304;28;20218;-71
2023/12/20 03:35:10;;;;;;;1.63;1.00;;;;;;;10.50;62.65;97429.91;5026862;28;20372;-70
2023/12/20 03:37:36;;;;;;;0.90;0.80;;;;;;;10.42;62.82;97435.06;5038477;28;20645;-70
2023/12/20 03:40:02;;;;;;;2.10;1.00;;;;;;;10.50;62.92;97436.97;5041993;28;20190;-70
2023/12/20 03:42:27;;;;;;;1.30;0.87;;;;;;;10.48;62.64;97431.84;5034321;28;20196;-71
2023/12/20 03:44:53;;;;;;;0.80;0.50;;;;;;;10.38;61.96;97439.78;5036333;28;20461;-71
2023/12/20 03:47:18;;;;;;;3.13;0.70;;;;;;;10.45;61.59;97443.44;5027438;28;20190;-70
2023/12/20 03:49:43;;;;;;;3.20;0.60;;;;;;;10.42;60.95;97448.16;5036983;28;20645;-71
2023/12/20 03:52:09;;;;;;;1.83;0.70;;;;;;;10.40;61.10;97447.47;5038112;28;20671;-69
2023/12/20 03:54:38;;;;;;;1.30;0.50;;;;;;;10.41;60.31;97446.53;5031222;28;20922;-71
2023/12/20 03:57:04;;;;;;;1.07;0.60;;;;;;;10.45;60.41;97445.25;5036659;28;20718;-70
2023/12/20 03:59:29;;;;;;;0.70;0.50;;;;;;;10.38;59.96;97444.19;5039307;28;20437;-70
2023/12/20 04:01:55;;;;;;;0.80;0.50;;;;;;;10.37;59.59;97439.88;5039489;28;20529;-72
2023/12/20 04:04:20;;;;;;;4.60;0.60;;;;;;;10.43;59.63;97442.78;5036380;28;20200;-72
2023/12/20 04:06:46;;;;;;;0.80;0.50;;;;;;;10.43;59.34;97449.81;5042477;28;20712;-70
2023/12/20 04:09:12;;;;;;;1.73;0.50;;;;;;;10.38;59.32;97444.19;5037583;28;20191;-70
2023/12/20 04:11:37;;;;;;;0.80;0.50;;;;;;;10.41;59.56;97449.94;5035485;28;20326;-70
2023/12/20 04:14:04;;;;;;;0.80;0.40;;;;;;;10.44;59.32;97452.28;5045117;28;20218;-71
2023/12/20 04:16:30;;;;;;;0.80;0.53;;;;;;;10.42;59.21;97450.78;5045445;28;20226;-71
2023/12/20 04:18:55;;;;;;;1.20;0.50;;;;;;;10.39;59.77;97440.59;5031213;28;20423;-69
2023/12/20 04:21:21;;;;;;;0.70;0.40;;;;;;;10.39;59.24;97444.06;5045055;28;20218;-72
2023/12/20 04:23:46;;;;;;;0.80;0.50;;;;;;;10.37;59.32;97447.72;5047693;28;20582;-70
2023/12/20 04:26:12;;;;;;;0.80;0.50;;;;;;;10.36;59.27;97469.66;5041228;28;20652;-71
2023/12/20 04:28:37;;;;;;;0.80;0.57;;;;;;;10.36;60.19;97469.66;5040607;28;20604;-72
2023/12/20 04:31:03;;;;;;;0.80;0.50;;;;;;;10.41;59.77;97475.34;5037140;28;20541;-70
2023/12/20 04:33:28;;;;;;;0.80;0.50;;;;;;;10.37;59.67;97469.53;5044501;28;20198;-70
2023/12/20 04:35:53;;;;;;;0.90;0.50;;;;;;;10.36;59.62;97470.50;5039617;28;20208;-70
2023/12/20 04:38:19;;;;;;;0.90;0.50;;;;;;;10.33;59.58;97469.97;5032726;28;20275;-70
2023/12/20 04:40:44;;;;;;;2.00;0.47;;;;;;;10.39;59.75;97462.41;5030947;28;20194;-71
2023/12/20 04:43:10;;;;;;;1.23;0.53;;;;;;;10.41;59.21;97486.63;5035005;28;20274;-71
2023/12/20 04:45:36;;;;;;;0.90;0.50;;;;;;;10.39;59.09;97480.72;5032143;28;20215;-70
2023/12/20 04:48:02;;;;;;;0.80;0.50;;;;;;;10.38;59.29;97499.19;5014492;28;20270;-73
2023/12/20 04:50:27;;;;;;;2.23;0.60;;;;;;;10.37;58.88;97498.34;5042506;28;20428;-72
2023/12/20 04:52:53;;;;;;;0.90;0.50;;;;;;;10.38;58.93;97496.56;5034330;28;20223;-71
2023/12/20 04:55:18;;;;;;;0.80;0.50;;;;;;;10.27;58.83;97477.44;5028359;28;20214;-71
2023/12/20 04:57:43;;;;;;;1.50;0.53;;;;;;;10.26;59.77;97474.97;5039560;28;20795;-71
2023/12/20 05:00:09;;;;;;;9.97;0.70;;;;;;;10.26;59.57;97496.72;5033787;28;20271;-72
2023/12/20 05:02:36;;;;;;;1.00;0.70;;;;;;;10.28;59.36;97494.78;5028221;28;20269;-71
2023/12/20 05:05:01;;;;;;;1.10;1.00;;;;;;;9.98;59.99;97501.91;5028735;28;20273;-70
2023/12/20 05:07:26;;;;;;;0.90;0.70;;;;;;;10.05;60.05;97504.78;5028837;28;20442;-71
2023/12/20 05:09:52;;;;;;;2.17;0.80;;;;;;;10.13;59.93;97506.69;5028893;28;20187;-71
2023/12/20 05:12:17;;;;;;;0.80;0.60;;;;;;;10.15;59.70;97512.63;5030130;28;20188;-71
2023/12/20 05:14:43;;;;;;;0.90;0.60;;;;;;;10.08;59.80;97506.31;5035720;28;21349;-71
2023/12/20 05:17:08;;;;;;;1.53;0.70;;;;;;;10.10;59.57;97506.97;5030949;28;20295;-70
2023/12/20 05:19:36;;;;;;;0.90;0.60;;;;;;;10.13;60.20;97507.53;5025913;28;20224;-71
2023/12/20 05:22:02;;;;;;;1.47;0.60;;;;;;;10.21;59.78;97519.91;5031254;28;20246;-70
2023/12/20 05:24:27;;;;;;;1.20;0.90;;;;;;;10.10;60.29;97525.31;5031143;28;21069;-71
2023/12/20 05:26:53;;;;;;;1.40;1.10;;;;;;;10.06;60.60;97522.16;5031109;28;20928;-72
2023/12/20 05:29:18;;;;;;;1.67;1.07;;;;;;;10.08;60.31;97525.47;5028615;28;20561;-71
2023/12/20 05:31:44;;;;;;;1.50;0.63;;;;;;;10.10;60.30;97526.16;5027987;28;20298;-71
2023/12/20 05:34:09;;;;;;;1.97;0.70;;;;;;;10.07;60.35;97531.66;5027877;28;20213;-71
2023/12/20 05:36:35;;;;;;;1.13;0.53;;;;;;;10.12;60.66;97532.06;5027737;28;20227;-69
2023/12/20 05:39:00;;;;;;;3.17;0.70;;;;;;;9.98;60.49;97527.28;5039295;28;20196;-72
2023/12/20 05:41:26;;;;;;;1.07;0.70;;;;;;;10.08;60.70;97537.75;5036115;28;20187;-71
2023/12/20 05:43:51;;;;;;;1.27;0.87;;;;;;;10.06;60.64;97535.25;5032636;28;20735;-71
2023/12/20 05:46:17;;;;;;;3.60;1.43;;;;;;;9.92;61.16;97544.38;5039356;28;20216;-70
2023/12/20 05:48:42;;;;;;;1.60;0.97;;;;;;;10.02;61.00;97536.47;5031330;28;20218;-71
2023/12/20 05:51:11;;;;;;;4.80;1.00;;;;;;;10.01;61.15;97544.50;5038584;28;20186;-71
2023/12/20 05:53:36;;;;;;;1.90;0.60;;;;;;;10.06;61.87;97552.75;5036875;28;20195;-70
2023/12/20 05:56:02;;;;;;;1.20;0.80;;;;;;;10.11;61.59;97553.16;5039983;28;20451;-70
2023/12/20 05:58:29;;;;;;;1.00;0.60;;;;;;;10.05;61.80;97562.41;5027202;28;20184;-69
2023/12/20 06:00:54;;;;;;;1.10;0.70;;;;;;;10.12;61.49;97567.91;5028757;28;20194;-71
2023/12/20 06:03:19;;;;;;;1.50;0.70;;;;;;;10.18;61.29;97569.97;5034798;28;20429;-69
2023/12/20 06:05:45;;;;;;;1.23;1.13;;;;;;;10.20;61.56;97569.81;5038627;28;20241;-70
2023/12/20 06:08:10;;;;;;;1.10;0.90;;;;;;;10.16;61.39;97579.75;5033461;28;20183;-70
2023/12/20 06:10:36;;;;;;;3.20;1.00;;;;;;;10.17;61.43;97576.16;5034779;28;20200;-70
2023/12/20 06:13:01;;;;;;;4.10;1.03;;;;;;;10.24;60.97;97574.63;5032089;28;20229;-70
2023/12/20 06:15:27;;;;;;;3.17;0.90;;;;;;;10.14;61.52;97571.22;5035435;28;20207;-70
2023/12/20 06:17:52;;;;;;;4.03;0.93;;;;;;;10.15;61.16;97575.47;5034019;28;20215;-70
2023/12/20 06:20:18;;;;;;;1.00;0.70;;;;;;;10.18;61.17;97572.59;5042874;28;20710;-69
2023/12/20 06:22:43;;;;;;;5.30;0.80;;;;;;;10.16;61.26;97577.13;5039503;28;20247;-69
2023/12/20 06:25:08;;;;;;;1.10;1.00;;;;;;;10.18;61.49;97577.81;5033781;28;20297;-68
2023/12/20 06:27:34;;;;;;;2.63;1.10;;;;;;;10.14;61.11;97582.50;5036725;28;20840;-69
2023/12/20 06:29:59;;;;;;;3.10;1.00;;;;;;;10.15;61.50;97583.34;5038501;28;20270;-70
2023/12/20 06:32:25;;;;;;;4.70;1.10;;;;;;;10.22;61.62;97578.38;5025618;28;20208;-69
2023/12/20 06:34:50;;;;;;;1.20;0.90;;;;;;;10.19;60.94;97578.63;5033611;28;20701;-70
2023/12/20 06:37:16;;;;;;;1.07;0.80;;;;;;;10.19;61.43;97574.25;5031816;28;20580;-71
2023/12/20 06:39:41;;;;;;;1.93;0.90;;;;;;;10.24;61.41;97560.72;5036232;28;20897;-70
2023/12/20 06:42:06;;;;;;;1.37;0.77;;;;;;;10.19;61.44;97571.63;5030055;28;20266;-70
2023/12/20 06:44:32;;;;;;;1.03;0.87;;;;;;;10.22;61.62;97573.13;5039574;28;20186;-70
2023/12/20 06:46:57;;;;;;;1.83;0.93;;;;;;;10.20;61.71;97575.91;5025392;28;20722;-70
2023/12/20 06:49:24;;;;;;;1.90;0.80;;;;;;;10.12;61.40;97581.84;5040782;28;20183;-71
2023/12/20 06:51:49;;;;;;;3.73;0.97;;;;;;;10.15;61.85;97588.56;5033946;28;20442;-70
2023/12/20 06:54:15;;;;;;;1.27;0.90;;;;;;;10.01;62.05;97595.09;5041855;28;20202;-72
2023/12/20 06:56:41;;;;;;;3.87;1.00;;;;;;;10.11;62.07;97597.66;5028057;28;20207;-70
2023/12/20 06:59:06;;;;;;;1.10;0.80;;;;;;;10.12;62.01;97591.47;5027701;28;20277;-70
2023/12/20 07:01:32;;;;;;;1.40;0.80;;;;;;;10.14;61.69;97602.63;5018296;28;20238;-70
2023/12/20 07:03:57;;;;;;;3.43;0.93;;;;;;;10.17;62.15;97601.53;4991001;28;20273;-70
2023/12/20 07:06:22;;;;;;;2.60;0.90;;;;;;;10.20;61.76;97611.72;5030468;28;20215;-71
2023/12/20 07:08:48;;;;;;;1.10;0.80;;;;;;;10.21;61.71;97611.56;5030831;28;20341;-70
2023/12/20 07:11:13;;;;;;;1.50;0.90;;;;;;;10.19;61.88;97615.31;5037640;28;20189;-71
2023/12/20 07:13:39;;;;;;;1.00;0.83;;;;;;;10.16;61.94;97616.41;5028176;28;20587;-70
2023/12/20 07:16:05;;;;;;;1.30;0.90;;;;;;;10.20;61.98;97625.66;5027630;28;20298;-71
2023/12/20 07:18:30;;;;;;;0.90;0.70;;;;;;;10.21;61.61;97627.28;5028937;28;20188;-70
2023/12/20 07:20:55;;;;;;;1.10;0.90;;;;;;;10.20;62.17;97638.75;5021351;28;20317;-71
2023/12/20 07:23:21;;;;;;;1.00;0.70;;;;;;;10.20;62.01;97643.16;5032134;28;20215;-71
2023/12/20 07:25:47;;;;;;;1.40;0.87;;;;;;;10.17;61.97;97643.44;5015173;28;20212;-70
2023/12/20 07:28:12;;;;;;;1.17;0.87;;;;;;;10.18;62.25;97651.16;5028848;28;20210;-69
2023/12/20 07:30:38;;;;;;;2.20;1.37;;;;;;;10.17;62.17;97659.16;5023430;28;20187;-70
2023/12/20 07:33:03;;;;;;;1.10;0.90;;;;;;;10.15;62.47;97664.53;5024819;28;20192;-70
2023/12/20 07:35:29;;;;;;;1.50;1.10;;;;;;;10.08;62.21;97661.63;5039617;28;20285;-70
2023/12/20 07:37:54;;;;;;;1.37;1.27;;;;;;;9.95;61.19;97680.25;5015357;28;20315;-70
2023/12/20 07:40:20;;;;;;;1.93;1.73;;;;;;;9.91;61.39;97676.25;5016653;28;20246;-70
2023/12/20 07:42:45;;;;;;;1.87;1.70;;;;;;;9.85;61.24;97676.78;5025240;28;20219;-70
2023/12/20 07:45:11;;;;;;;2.80;2.23;;;;;;;9.78;60.72;97680.91;5033052;28;20264;-69
2023/12/20 07:47:37;;;;;;;2.30;1.90;;;;;;;9.77;60.77;97689.72;5028417;28;20180;-70
2023/12/20 07:50:03;;;;;;;2.33;2.13;;;;;;;9.78;60.98;97689.56;5031073;28;20428;-71
2023/12/20 07:52:29;;;;;;;2.83;2.03;;;;;;;9.81;60.43;97673.59;5033248;28;20206;-71
2023/12/20 07:54:55;;;;;;;3.20;2.03;;;;;;;9.80;60.47;97669.34;5033813;28;20200;-72
2023/12/20 07:57:21;;;;;;;2.60;2.40;;;;;;;9.91;60.41;97684.09;5034654;28;20426;-72
2023/12/20 07:59:46;;;;;;;2.50;2.30;;;;;;;9.96;60.81;97683.69;5026742;28;20729;-72
2023/12/20 08:02:12;;;;;;;11.00;2.63;;;;;;;10.03;61.33;97671.69;5029555;28;20191;-71
2023/12/20 08:04:37;;;;;;;3.83;2.63;;;;;;;10.11;61.38;97673.63;5025042;28;20295;-71
2023/12/20 08:07:03;;;;;;;4.53;2.60;;;;;;;10.14;60.96;97678.59;5025998;28;20206;-71
2023/12/20 08:09:29;;;;;;;2.27;2.17;;;;;;;10.11;60.01;97673.63;5033474;28;20188;-72
2023/12/20 08:11:55;;;;;;;2.90;2.50;;;;;;;10.04;59.76;97689.06;5031342;28;20942;-72
2023/12/20 08:14:20;;;;;;;3.87;2.97;;;;;;;10.04;59.91;97691.69;5026978;28;20515;-70
2023/12/20 08:16:46;;;;;;;2.67;2.47;;;;;;;10.03;59.62;97690.03;5031518;28;20214;-71
2023/12/20 08:19:11;;;;;;;2.80;2.60;;;;;;;10.05;59.55;97689.91;5018568;28;20202;-70
2023/12/20 08:21:36;;;;;;;3.93;2.70;;;;;;;9.99;59.83;97684.22;5028153;28;20200;-69
2023/12/20 08:24:02;;;;;;;3.83;2.63;;;;;;;9.98;59.99;97698.28;5030697;28;20286;-70
2023/12/20 08:26:28;;;;;;;3.50;3.20;;;;;;;9.92;59.67;97700.63;5030458;28;20227;-70
2023/12/20 08:28:53;;;;;;;5.13;2.70;;;;;;;9.84;59.41;97706.53;5033179;28;20489;-71
2023/12/20 08:31:19;;;;;;;3.73;2.37;;;;;;;9.92;59.70;97701.47;5032682;28;20203;-71
2023/12/20 08:33:45;;;;;;;2.47;2.27;;;;;;;9.88;59.52;97697.47;5015586;28;20215;-70
2023/12/20 08:36:11;;;;;;;3.17;2.70;;;;;;;9.89;59.83;97709.59;5030827;28;20294;-71
2023/12/20 08:38:36;;;;;;;2.53;2.33;;;;;;;9.91;59.73;97699.81;5027273;28;20516;-71
2023/12/20 08:41:04;;;;;;;3.53;2.97;;;;;;;9.86;59.60;97709.03;5028012;28;20431;-72
2023/12/20 08:43:31;;;;;;;4.90;2.77;;;;;;;9.86;59.58;97716.88;5028600;28;20688;-72
2023/12/20 08:45:56;;;;;;;5.00;3.07;;;;;;;9.86;59.50;97729.97;5020773;28;20846;-71
2023/12/20 08:48:22;;;;;;;2.40;2.20;;;;;;;9.86;58.75;97725.56;5035120;28;20426;-71
2023/12/20 08:50:48;;;;;;;2.93;2.40;;;;;;;9.84;58.83;97735.34;5028365;28;20310;-70
2023/12/20 08:53:15;;;;;;;2.70;2.50;;;;;;;9.85;58.58;97734.38;5036048;28;20668;-71
2023/12/20 08:55:41;;;;;;;3.53;2.43;;;;;;;9.85;58.29;97734.38;5028470;28;20445;-70
2023/12/20 08:58:07;;;;;;;3.00;1.90;;;;;;;9.79;57.43;97748.00;5034224;28;20442;-71
2023/12/20 09:00:34;;;;;;;2.83;2.63;;;;;;;9.81;57.68;97740.84;5029451;28;20196;-70
2023/12/20 09:02:59;;;;;;;3.90;2.80;;;;;;;9.91;57.77;97736.47;5027057;28;20445;-71
2023/12/20 09:05:25;;;;;;;3.90;2.80;;;;;;;10.09;57.00;97731.38;5029834;28;20472;-70
2023/12/20 09:07:50;;;;;;;3.53;2.37;;;;;;;10.65;55.08;97725.63;5026773;28;20195;-71
2023/12/20 09:10:16;;;;;;;4.27;2.47;;;;;;;10.98;53.87;97710.38;5040364;28;20219;-71
2023/12/20 09:12:42;;;;;;;2.53;2.30;;;;;;;11.67;53.00;97713.53;5023891;28;20215;-70
2023/12/20 09:15:08;;;;;;;3.10;1.97;;;;;;;11.94;50.19;97717.94;5032913;28;20638;-70
2023/12/20 09:17:33;;;;;;;4.70;2.37;;;;;;;12.52;49.19;97723.75;5032850;28;20436;-70
2023/12/20 09:19:59;;;;;;;4.17;2.20;;;;;;;13.01;47.78;97717.19;5032061;28;20617;-72
2023/12/20 09:22:25;;;;;;;3.20;1.87;;;;;;;13.48;46.46;97726.53;5029421;28;20198;-71
2023/12/20 09:24:50;;;;;;;2.90;2.30;;;;;;;13.92;45.33;97728.97;5027021;28;20557;-72
2023/12/20 09:27:16;;;;;;;4.27;2.10;;;;;;;14.29;44.21;97721.63;5023626;28;20656;-72
2023/12/20 09:29:41;;;;;;;3.20;1.70;;;;;;;14.47;43.35;97716.19;5033196;28;20195;-71
2023/12/20 09:32:07;;;;;;;3.17;1.63;;;;;;;14.81;42.44;97717.00;5024918;28;20581;-71
2023/12/20 09:34:33;;;;;;;4.93;1.80;;;;;;;15.00;42.80;97726.38;5022363;28;20746;-71
2023/12/20 09:36:58;;;;;;;5.53;1.67;;;;;;;15.36;41.81;97723.34;5032832;28;20687;-70
2023/12/20 09:39:24;;;;;;;3.80;1.80;;;;;;;15.66;41.37;97716.47;5031139;28;20690;-71
2023/12/20 09:42:03;;;;;;;2.30;1.53;;;;;;;15.97;39.78;97720.13;5033642;28;20198;-69
2023/12/20 09:44:29;;;;;;;3.23;1.50;;;;;;;16.16;39.25;97732.09;5037857;28;20195;-70
2023/12/20 09:46:55;;;;;;;4.03;1.57;;;;;;;16.25;38.41;97738.16;5023904;28;20517;-71
2023/12/20 09:49:21;;;;;;;5.37;2.50;;;;;;;16.26;37.73;97737.97;5009155;28;20200;-71
2023/12/20 09:51:47;;;;;;;4.73;1.50;;;;;;;16.22;38.64;97731.38;5033765;28;20433;-71
2023/12/20 09:54:16;;;;;;;3.30;1.40;;;;;;;16.20;36.81;97738.66;5028714;28;20434;-72
2023/12/20 09:56:42;;;;;;;5.20;1.40;;;;;;;16.48;36.85;97737.31;5033153;28;20210;-71
2023/12/20 09:59:07;;;;;;;2.67;1.30;;;;;;;16.85;37.05;97735.69;5033007;28;20446;-71
2023/12/20 10:01:34;;;;;;;4.30;1.73;;;;;;;17.02;36.16;97737.19;5041162;28;20226;-71
2023/12/20 10:04:00;;;;;;;4.77;1.40;;;;;;;17.15;34.77;97736.59;5034925;28;20211;-71
2023/12/20 10:06:25;;;;;;;5.43;2.23;;;;;;;17.30;34.66;97731.28;5022791;28;20471;-72
2023/12/20 10:08:51;;;;;;;3.37;1.27;;;;;;;17.40;34.55;97731.03;5035490;28;20567;-71
2023/12/20 10:11:17;;;;;;;4.17;1.30;;;;;;;17.61;34.52;97726.78;5024352;28;20199;-69
2023/12/20 10:13:42;;;;;;;5.30;1.40;;;;;;;17.87;34.62;97739.56;5024216;28;20441;-71
2023/12/20 10:16:08;;;;;;;3.40;1.20;;;;;;;17.87;33.68;97742.22;5029052;28;20211;-71
2023/12/20 10:18:33;;;;;;;2.50;1.30;;;;;;;17.46;34.24;97735.56;5025416;28;20228;-71
2023/12/20 10:21:00;;;;;;;9.60;1.97;;;;;;;16.87;35.21;97731.03;5037487;28;20191;-71
2023/12/20 10:23:25;;;;;;;6.73;1.50;;;;;;;16.32;36.65;97722.41;5025220;28;20279;-71
2023/12/20 10:26:00;;;;;;;4.47;1.80;;;;;;;15.79;36.64;97715.91;5022268;28;21022;-71
2023/12/20 10:28:29;;;;;;;6.00;1.50;;;;;;;15.40;37.49;97716.72;5023897;28;20314;-72
2023/12/20 10:30:57;;;;;;;2.90;1.60;;;;;;;14.89;38.30;97709.91;5037980;28;20422;-70
2023/12/20 10:33:24;;;;;;;3.90;1.43;;;;;;;14.61;39.27;97700.72;5035122;28;20442;-69
2023/12/20 10:35:50;;;;;;;5.37;1.43;;;;;;;14.24;39.83;97711.56;5037714;28;21034;-70
2023/12/20 10:38:15;;;;;;;4.23;1.50;;;;;;;13.96;40.16;97708.38;5026915;28;20442;-72
2023/12/20 10:40:41;;;;;;;3.87;1.60;;;;;;;13.73;41.06;97709.00;5031701;28;20211;-70
2023/12/20 10:43:08;;;;;;;3.37;1.20;;;;;;;13.47;41.17;97709.88;5032867;28;20191;-70
2023/12/20 10:45:34;;;;;;;4.73;1.40;;;;;;;13.21;41.87;97709.91;5039169;28;20221;-71
2023/12/20 10:47:59;;;;;;;1.80;1.10;;;;;;;13.08;42.72;97709.50;5026550;28;20438;-70
2023/12/20 10:50:26;;;;;;;4.90;1.70;;;;;;;12.97;42.91;97708.78;5038314;28;20200;-70
2023/12/20 10:52:55;;;;;;;2.13;1.67;;;;;;;12.90;43.39;97713.00;5031144;28;20191;-70
2023/12/20 10:55:24;;;;;;;2.30;1.40;;;;;;;12.80;43.73;97712.28;5016651;28;20526;-72
2023/12/20 10:58:16;;;;;;;2.70;1.30;;;;;;;12.69;43.43;97706.31;5016386;28;20458;-71
2023/12/20 11:00:44;;;;;;;3.73;1.33;;;;;;;12.55;43.60;97709.47;5020999;28;20439;-70
2023/12/20 11:03:10;;;;;;;7.10;1.40;;;;;;;12.53;43.54;97700.91;5032673;28;20439;-71
2023/12/20 11:05:51;;;;;;;7.13;2.13;;;;;;;12.50;44.03;97701.22;5021679;28;20996;-71
2023/12/20 11:08:19;;;;;;;3.33;1.63;;;;;;;12.46;43.83;97694.63;5025140;28;20991;-70
2023/12/20 11:11:04;;;;;;;5.07;1.60;;;;;;;12.41;44.41;97698.53;5020045;28;20960;-70
2023/12/20 11:13:48;;;;;;;8.33;1.63;;;;;;;12.34;45.24;97697.50;5031312;28;20425;-69
2023/12/20 11:16:13;;;;;;;3.73;1.30;;;;;;;12.27;44.76;97697.28;5022109;28;20458;-69
2023/12/20 11:18:40;;;;;;;6.00;1.70;;;;;;;12.24;44.45;97692.31;5015695;28;20492;-70
2023/12/20 11:21:06;;;;;;;4.40;2.07;;;;;;;12.17;44.67;97693.06;5021521;28;20260;-70
2023/12/20 11:23:34;;;;;;;3.10;1.60;;;;;;;12.11;45.08;97694.50;5024559;28;20938;-69
2023/12/20 11:26:01;;;;;;;6.67;2.20;;;;;;;12.11;44.65;97697.94;5017292;28;20639;-70
2023/12/20 11:28:27;;;;;;;3.57;1.80;;;;;;;12.10;45.31;97691.03;5039284;28;20439;-70